createdAt,value
2017-10-25T00:00:37.967Z,18.44
2017-10-25T00:03:07.142Z,18.31
2017-10-25T00:05:35.578Z,18.41
2017-10-25T00:08:03.936Z,18.24
2017-10-25T00:10:33.082Z,18.30
2017-10-25T00:13:01.422Z,18.40
2017-10-25T00:15:30.529Z,18.44
2017-10-25T00:17:59.916Z,18.45
2017-10-25T00:20:28.267Z,18.44
2017-10-25T00:22:56.609Z,18.60
2017-10-25T00:25:25.392Z,18.43
2017-10-25T00:27:53.777Z,18.37
2017-10-25T00:30:22.432Z,18.23
2017-10-25T00:32:51.583Z,18.35
2017-10-25T00:35:20.523Z,18.37
2017-10-25T00:37:49.138Z,18.50
2017-10-25T00:40:18.028Z,18.38
2017-10-25T00:42:46.378Z,18.42
2017-10-25T00:45:14.804Z,18.51
2017-10-25T00:47:43.159Z,18.44
2017-10-25T00:50:11.476Z,18.61
2017-10-25T00:52:39.949Z,18.67
2017-10-25T00:55:08.302Z,18.56
2017-10-25T00:57:36.806Z,18.32
2017-10-25T01:00:05.125Z,18.41
2017-10-25T01:02:33.690Z,18.35
2017-10-25T01:05:02.049Z,18.63
2017-10-25T01:07:30.953Z,18.75
2017-10-25T01:10:00.176Z,18.80
2017-10-25T01:12:28.875Z,18.84
2017-10-25T01:14:57.980Z,18.76
2017-10-25T01:17:27.122Z,18.65
2017-10-25T01:19:55.702Z,18.63
2017-10-25T01:22:24.049Z,18.78
2017-10-25T01:24:52.498Z,18.64
2017-10-25T01:27:21.506Z,18.69
2017-10-25T01:29:50.617Z,18.59
2017-10-25T01:32:19.277Z,18.69
2017-10-25T01:34:47.616Z,18.77
2017-10-25T01:37:16.176Z,18.74
2017-10-25T01:39:44.543Z,18.64
2017-10-25T01:42:13.664Z,18.50
2017-10-25T01:44:41.997Z,18.57
2017-10-25T01:47:11.329Z,18.66
2017-10-25T01:49:39.659Z,18.71
2017-10-25T01:52:07.998Z,18.62
2017-10-25T01:54:36.386Z,18.70
2017-10-25T01:57:04.729Z,18.75
2017-10-25T01:59:33.877Z,18.86
2017-10-25T02:02:03.243Z,18.66
2017-10-25T02:04:31.634Z,18.52
2017-10-25T02:07:00.882Z,18.52
2017-10-25T02:09:29.814Z,18.52
2017-10-25T02:11:58.880Z,18.46
2017-10-25T02:14:28.055Z,18.42
2017-10-25T02:16:57.246Z,18.69
2017-10-25T02:19:25.606Z,18.45
2017-10-25T02:21:53.965Z,18.58
2017-10-25T02:24:22.318Z,18.54
2017-10-25T02:26:51.258Z,18.54
2017-10-25T02:29:19.638Z,18.61
2017-10-25T02:31:48.522Z,18.47
2017-10-25T02:34:16.878Z,18.33
2017-10-25T02:36:45.234Z,18.39
2017-10-25T02:39:15.060Z,18.47
2017-10-25T02:41:44.190Z,18.32
2017-10-25T02:44:12.518Z,18.40
2017-10-25T02:46:41.549Z,18.51
2017-10-25T02:49:09.884Z,18.69
2017-10-25T02:51:38.224Z,18.63
2017-10-25T02:54:06.970Z,18.57
2017-10-25T02:56:35.302Z,18.68
2017-10-25T02:59:03.643Z,18.61
2017-10-25T03:01:32.008Z,18.52
2017-10-25T03:04:00.358Z,18.41
2017-10-25T03:06:28.734Z,18.49
2017-10-25T03:08:57.114Z,18.36
2017-10-25T03:11:25.479Z,18.58
2017-10-25T03:13:53.880Z,18.33
2017-10-25T03:16:22.645Z,18.36
2017-10-25T03:18:51.793Z,18.33
2017-10-25T03:21:20.908Z,18.16
2017-10-25T03:23:49.272Z,18.28
2017-10-25T03:26:18.629Z,18.33
2017-10-25T03:28:46.962Z,18.34
2017-10-25T03:31:15.324Z,18.31
2017-10-25T03:33:44.423Z,18.50
2017-10-25T03:36:13.540Z,18.37
2017-10-25T03:38:42.988Z,18.36
2017-10-25T03:41:12.050Z,18.54
2017-10-25T03:43:40.414Z,18.55
2017-10-25T03:46:09.555Z,18.22
2017-10-25T03:48:37.902Z,18.30
2017-10-25T03:51:07.190Z,18.20
2017-10-25T03:53:35.605Z,18.38
2017-10-25T03:56:03.947Z,18.51
2017-10-25T03:58:33.082Z,18.60
2017-10-25T04:01:02.399Z,18.68
2017-10-25T04:03:30.941Z,18.72
2017-10-25T04:05:59.282Z,18.82
2017-10-25T04:08:28.240Z,18.52
2017-10-25T04:10:56.566Z,18.50
2017-10-25T04:13:25.682Z,18.60
2017-10-25T04:15:54.046Z,18.17
2017-10-25T04:18:22.378Z,18.17
2017-10-25T04:20:50.718Z,18.34
2017-10-25T04:23:19.757Z,18.38
2017-10-25T04:25:48.085Z,18.52
2017-10-25T04:28:16.430Z,18.33
2017-10-25T04:30:45.794Z,18.16
2017-10-25T04:33:14.118Z,18.21
2017-10-25T04:35:43.217Z,18.15
2017-10-25T04:38:12.541Z,18.34
2017-10-25T04:40:41.216Z,18.24
2017-10-25T04:43:10.337Z,18.03
2017-10-25T04:45:38.734Z,18.18
2017-10-25T04:48:07.061Z,18.23
2017-10-25T04:50:36.170Z,18.22
2017-10-25T04:53:05.280Z,18.18
2017-10-25T04:55:34.654Z,18.16
2017-10-25T04:58:03.005Z,18.23
2017-10-25T05:00:31.369Z,18.14
2017-10-25T05:02:59.713Z,18.18
2017-10-25T05:05:28.065Z,18.15
2017-10-25T05:07:57.702Z,18.27
2017-10-25T05:10:26.046Z,18.24
2017-10-25T05:12:54.556Z,18.42
2017-10-25T05:15:23.834Z,18.22
2017-10-25T05:17:52.933Z,18.17
2017-10-25T05:20:22.028Z,18.14
2017-10-25T05:22:51.171Z,17.98
2017-10-25T05:25:19.501Z,17.87
2017-10-25T05:27:48.614Z,17.93
2017-10-25T05:30:17.263Z,18.06
2017-10-25T05:32:45.606Z,17.89
2017-10-25T05:35:13.941Z,17.94
2017-10-25T05:37:43.066Z,17.93
2017-10-25T05:40:12.184Z,17.92
2017-10-25T05:42:40.556Z,17.90
2017-10-25T05:45:09.157Z,17.87
2017-10-25T05:47:38.497Z,18.22
2017-10-25T05:50:07.611Z,17.88
2017-10-25T05:52:37.201Z,17.98
2017-10-25T05:55:06.317Z,17.81
2017-10-25T05:57:34.670Z,17.91
2017-10-25T06:00:03.530Z,17.91
2017-10-25T06:02:32.570Z,18.05
2017-10-25T06:05:01.685Z,18.18
2017-10-25T06:07:30.059Z,18.17
2017-10-25T06:09:58.422Z,18.17
2017-10-25T06:12:27.733Z,18.10
2017-10-25T06:14:57.180Z,17.95
2017-10-25T06:17:25.534Z,18.07
2017-10-25T06:19:53.904Z,17.93
2017-10-25T06:22:22.254Z,17.78
2017-10-25T06:24:51.044Z,17.73
2017-10-25T06:27:19.385Z,17.92
2017-10-25T06:29:47.753Z,17.69
2017-10-25T06:32:16.613Z,17.94
2017-10-25T06:34:45.715Z,17.91
2017-10-25T06:37:14.406Z,17.84
2017-10-25T06:39:43.933Z,17.94
2017-10-25T06:42:12.913Z,17.79
2017-10-25T06:44:41.306Z,17.86
2017-10-25T06:47:09.911Z,17.83
2017-10-25T06:49:38.269Z,17.86
2017-10-25T06:52:06.648Z,18.18
2017-10-25T06:54:34.973Z,17.79
2017-10-25T06:57:03.314Z,17.75
2017-10-25T06:59:31.722Z,17.89
2017-10-25T07:02:00.298Z,17.63
2017-10-25T07:04:28.642Z,17.79
2017-10-25T07:06:57.029Z,17.71
2017-10-25T07:09:25.398Z,17.85
2017-10-25T07:11:53.743Z,17.82
2017-10-25T07:14:22.880Z,17.90
2017-10-25T07:16:51.458Z,17.74
2017-10-25T07:19:19.817Z,17.90
2017-10-25T07:21:48.349Z,18.02
2017-10-25T07:24:16.694Z,17.94
2017-10-25T07:26:45.726Z,17.80
2017-10-25T07:29:14.101Z,17.83
2017-10-25T07:31:43.634Z,17.88
2017-10-25T07:34:12.072Z,17.84
2017-10-25T07:36:40.849Z,17.82
2017-10-25T07:39:09.493Z,17.94
2017-10-25T07:41:37.844Z,17.74
2017-10-25T07:44:06.364Z,17.77
2017-10-25T07:46:35.474Z,17.67
2017-10-25T07:49:03.830Z,17.99
2017-10-25T07:51:32.978Z,18.05
2017-10-25T07:54:01.499Z,18.15
2017-10-25T07:56:29.919Z,18.23
2017-10-25T07:58:58.357Z,18.31
2017-10-25T08:01:26.747Z,18.64
2017-10-25T08:03:55.926Z,18.45
2017-10-25T08:06:24.497Z,18.58
2017-10-25T08:08:52.846Z,18.10
2017-10-25T08:11:21.209Z,18.16
2017-10-25T08:13:49.587Z,18.21
2017-10-25T08:16:19.008Z,17.98
2017-10-25T08:18:47.355Z,18.19
2017-10-25T08:21:15.728Z,18.30
2017-10-25T08:23:44.839Z,18.17
2017-10-25T08:26:14.207Z,18.16
2017-10-25T08:28:44.033Z,17.92
2017-10-25T08:31:12.415Z,17.78
2017-10-25T08:33:40.905Z,18.02
2017-10-25T08:36:09.480Z,18.32
2017-10-25T08:38:38.666Z,17.94
2017-10-25T08:41:07.003Z,18.07
2017-10-25T08:43:35.416Z,18.43
2017-10-25T08:46:04.369Z,18.14
2017-10-25T08:48:33.041Z,18.38
2017-10-25T08:51:01.610Z,18.21
2017-10-25T08:53:29.993Z,18.12
2017-10-25T08:55:59.321Z,18.16
2017-10-25T08:58:27.681Z,18.50
2017-10-25T09:00:56.050Z,18.33
2017-10-25T09:03:24.423Z,18.50
2017-10-25T09:05:53.599Z,18.85
2017-10-25T09:08:22.165Z,18.81
2017-10-25T09:10:50.525Z,18.71
2017-10-25T09:13:19.924Z,18.80
2017-10-25T09:15:48.304Z,18.56
2017-10-25T09:18:16.919Z,18.45
2017-10-25T09:20:45.304Z,18.61
2017-10-25T09:23:13.665Z,18.76
2017-10-25T09:25:42.003Z,19.04
2017-10-25T09:28:11.141Z,19.20
2017-10-25T09:30:39.518Z,19.27
2017-10-25T09:33:07.911Z,19.59
2017-10-25T09:35:36.356Z,19.61
2017-10-25T09:38:05.032Z,19.94
2017-10-25T09:40:34.190Z,19.87
2017-10-25T09:43:03.477Z,19.87
2017-10-25T09:45:31.810Z,19.72
2017-10-25T09:48:00.165Z,20.71
2017-10-25T09:50:28.841Z,20.70
2017-10-25T09:52:57.967Z,20.59
2017-10-25T09:55:27.110Z,21.83
2017-10-25T09:57:55.681Z,24.10
2017-10-25T10:00:24.241Z,24.06
2017-10-25T10:02:53.385Z,24.18
2017-10-25T10:05:21.747Z,23.28
2017-10-25T10:07:50.099Z,24.18
2017-10-25T10:10:18.453Z,25.55
2017-10-25T10:12:46.841Z,26.10
2017-10-25T10:15:15.944Z,24.98
2017-10-25T10:17:46.132Z,24.71
2017-10-25T10:20:14.642Z,25.55
2017-10-25T10:22:43.809Z,23.75
2017-10-25T10:25:12.199Z,22.60
2017-10-25T10:27:41.475Z,23.24
2017-10-25T10:30:10.040Z,25.60
2017-10-25T10:32:38.436Z,27.48
2017-10-25T10:35:06.835Z,28.88
2017-10-25T10:37:35.189Z,28.38
2017-10-25T10:40:03.565Z,28.74
2017-10-25T10:42:32.719Z,30.47
2017-10-25T10:45:03.156Z,30.98
2017-10-25T10:47:31.493Z,31.16
2017-10-25T10:50:00.755Z,30.50
2017-10-25T10:52:29.109Z,30.42
2017-10-25T10:54:58.226Z,29.02
2017-10-25T10:57:26.582Z,27.41
2017-10-25T10:59:56.337Z,25.55
2017-10-25T11:02:24.696Z,24.99
2017-10-25T11:04:53.289Z,23.96
2017-10-25T11:07:21.631Z,23.45
2017-10-25T11:09:51.488Z,23.23
2017-10-25T11:12:19.866Z,22.82
2017-10-25T11:14:48.228Z,22.17
2017-10-25T11:17:17.497Z,21.92
2017-10-25T11:19:46.637Z,21.70
2017-10-25T11:22:15.850Z,20.89
2017-10-25T11:24:44.188Z,20.81
2017-10-25T11:27:12.698Z,20.84
2017-10-25T11:29:41.067Z,20.63
2017-10-25T11:32:09.427Z,20.13
2017-10-25T11:34:37.788Z,20.18
2017-10-25T11:37:07.957Z,20.27
2017-10-25T11:39:36.349Z,20.22
2017-10-25T11:42:04.726Z,20.09
2017-10-25T11:44:33.080Z,20.00
2017-10-25T11:47:01.692Z,20.09
2017-10-25T11:49:30.162Z,20.18
2017-10-25T11:51:58.493Z,20.38
2017-10-25T11:54:27.626Z,20.12
2017-10-25T11:56:56.117Z,19.96
2017-10-25T11:59:24.484Z,19.90
2017-10-25T12:01:52.833Z,20.11
2017-10-25T12:04:22.014Z,19.60
2017-10-25T12:06:50.358Z,19.52
2017-10-25T12:09:19.559Z,19.35
2017-10-25T12:11:49.240Z,19.31
2017-10-25T12:14:17.601Z,19.39
2017-10-25T12:16:46.760Z,19.20
2017-10-25T12:19:15.150Z,19.31
2017-10-25T12:21:43.488Z,19.44
2017-10-25T12:24:11.854Z,19.45
2017-10-25T12:29:11.591Z,18.96
2017-10-25T12:31:41.004Z,18.72
2017-10-25T12:34:09.382Z,18.59
2017-10-25T12:36:38.522Z,18.64
2017-10-25T12:39:06.894Z,18.68
2017-10-25T12:41:35.239Z,18.47
2017-10-25T12:44:03.613Z,18.30
2017-10-25T12:46:31.974Z,18.33
2017-10-25T12:49:00.317Z,18.53
2017-10-25T12:51:28.769Z,18.27
2017-10-25T12:53:57.101Z,18.29
2017-10-25T12:56:25.847Z,18.30
2017-10-25T12:58:54.257Z,18.04
2017-10-25T13:01:22.592Z,17.72
2017-10-25T13:03:51.527Z,17.94
2017-10-25T13:06:19.923Z,17.89
2017-10-25T13:08:49.863Z,17.96
2017-10-25T13:11:30.281Z,17.95
2017-10-25T13:14:09.096Z,18.04
2017-10-25T13:19:38.714Z,18.26
2017-10-25T13:22:07.083Z,18.32
2017-10-25T13:24:35.458Z,18.10
2017-10-25T13:27:03.801Z,18.08
2017-10-25T13:29:32.990Z,18.22
2017-10-25T13:32:01.340Z,18.50
2017-10-25T13:34:29.684Z,18.29
2017-10-25T13:36:59.467Z,18.28
2017-10-25T13:39:27.808Z,18.26
2017-10-25T13:41:56.965Z,18.24
2017-10-25T13:44:25.351Z,18.23
2017-10-25T13:46:54.267Z,18.43
2017-10-25T13:49:23.411Z,18.43
2017-10-25T13:51:52.303Z,18.51
2017-10-25T13:54:20.646Z,18.28
2017-10-25T13:56:49.706Z,18.31
2017-10-25T13:59:18.902Z,18.39
2017-10-25T14:01:47.759Z,18.35
2017-10-25T14:04:16.108Z,18.63
2017-10-25T14:06:44.477Z,18.73
2017-10-25T14:09:12.826Z,18.58
2017-10-25T14:11:41.190Z,18.53
2017-10-25T14:14:09.759Z,18.51
2017-10-25T14:16:38.105Z,18.28
2017-10-25T14:19:06.793Z,18.50
2017-10-25T14:21:35.223Z,18.53
2017-10-25T14:24:03.623Z,18.54
2017-10-25T14:26:49.675Z,18.56
2017-10-25T14:29:18.771Z,18.27
2017-10-25T14:31:47.110Z,18.35
2017-10-25T14:34:15.928Z,18.42
2017-10-25T14:36:45.435Z,18.53
2017-10-25T14:39:14.567Z,18.58
2017-10-25T14:41:42.974Z,18.61
2017-10-25T14:44:11.593Z,18.72
2017-10-25T14:46:40.703Z,18.50
2017-10-25T14:49:09.108Z,18.69
2017-10-25T14:51:37.681Z,18.73
2017-10-25T14:54:06.040Z,18.63
2017-10-25T14:56:35.357Z,18.46
2017-10-25T14:59:03.676Z,18.65
2017-10-25T15:01:32.021Z,18.69
2017-10-25T15:04:01.129Z,18.81
2017-10-25T15:06:29.478Z,18.68
2017-10-25T15:08:58.806Z,18.74
2017-10-25T15:11:27.184Z,18.83
2017-10-25T15:13:55.532Z,18.70
2017-10-25T15:16:23.904Z,18.61
2017-10-25T15:18:53.080Z,18.32
2017-10-25T15:21:21.433Z,18.36
2017-10-25T15:23:50.589Z,18.43
2017-10-25T15:26:20.471Z,18.44
2017-10-25T15:28:48.833Z,18.42
2017-10-25T15:31:18.124Z,18.53
2017-10-25T15:33:46.490Z,18.65
2017-10-25T15:36:15.618Z,18.65
2017-10-25T15:38:43.976Z,18.65
2017-10-25T15:41:12.729Z,18.57
2017-10-25T15:43:41.068Z,18.51
2017-10-25T15:46:09.417Z,18.34
2017-10-25T15:48:37.905Z,18.40
2017-10-25T15:51:06.228Z,18.22
2017-10-25T15:53:35.331Z,18.21
2017-10-25T15:56:04.472Z,18.10
2017-10-25T15:58:32.823Z,17.97
2017-10-25T16:01:01.196Z,17.75
2017-10-25T16:03:29.710Z,17.80
2017-10-25T16:05:58.038Z,17.84
2017-10-25T16:08:26.684Z,17.80
2017-10-25T16:10:55.116Z,17.78
2017-10-25T16:13:24.245Z,17.82
2017-10-25T16:15:52.649Z,17.74
2017-10-25T16:18:21.034Z,17.80
2017-10-25T16:20:50.222Z,17.46
2017-10-25T16:23:18.566Z,17.35
2017-10-25T16:25:48.095Z,17.18
2017-10-25T16:28:16.428Z,17.14
2017-10-25T16:30:44.763Z,17.17
2017-10-25T16:33:13.131Z,17.21
2017-10-25T16:35:41.475Z,17.25
2017-10-25T16:38:09.855Z,17.19
2017-10-25T16:40:38.290Z,17.23
2017-10-25T16:43:06.647Z,17.19
2017-10-25T16:45:35.420Z,17.13
2017-10-25T16:48:03.860Z,17.15
2017-10-25T16:50:32.250Z,16.94
2017-10-25T16:53:01.372Z,16.81
2017-10-25T16:55:30.526Z,16.90
2017-10-25T16:57:58.866Z,16.88
2017-10-25T17:00:27.217Z,16.83
2017-10-25T17:02:56.357Z,16.82
2017-10-25T17:05:24.751Z,16.83
2017-10-25T17:07:53.130Z,16.87
2017-10-25T17:10:21.871Z,16.87
2017-10-25T17:12:50.219Z,16.91
2017-10-25T17:15:19.587Z,16.81
2017-10-25T17:17:47.986Z,16.54
2017-10-25T17:20:16.334Z,16.56
2017-10-25T17:22:45.372Z,16.41
2017-10-25T17:25:14.533Z,16.52
2017-10-25T17:27:42.922Z,16.61
2017-10-25T17:30:11.269Z,16.62
2017-10-25T17:32:39.862Z,16.57
2017-10-25T17:35:08.192Z,16.62
2017-10-25T17:37:37.332Z,16.59
2017-10-25T17:40:05.968Z,16.22
2017-10-25T17:42:34.316Z,16.23
2017-10-25T17:45:03.558Z,16.36
2017-10-25T17:47:32.739Z,16.37
2017-10-25T17:50:01.111Z,16.39
2017-10-25T17:52:29.551Z,16.40
2017-10-25T17:54:58.154Z,16.33
2017-10-25T17:57:26.589Z,16.25
2017-10-25T17:59:55.750Z,16.33
2017-10-25T18:02:24.567Z,16.20
2017-10-25T18:04:53.719Z,16.25
2017-10-25T18:07:22.539Z,16.02
2017-10-25T18:09:52.459Z,15.88
2017-10-25T18:12:21.030Z,15.95
2017-10-25T18:14:49.391Z,16.00
2017-10-25T18:17:18.055Z,15.90
2017-10-25T18:19:46.475Z,15.97
2017-10-25T18:22:15.514Z,15.96
2017-10-25T18:24:43.898Z,16.02
2017-10-25T18:27:12.250Z,15.99
2017-10-25T18:29:41.367Z,15.97
2017-10-25T18:32:10.417Z,16.00
2017-10-25T18:34:39.665Z,15.98
2017-10-25T18:37:08.004Z,15.87
2017-10-25T18:39:36.594Z,15.83
2017-10-25T18:42:04.956Z,15.81
2017-10-25T18:44:33.315Z,15.82
2017-10-25T18:47:01.709Z,15.74
2017-10-25T18:49:31.490Z,15.79
2017-10-25T18:52:01.308Z,15.71
2017-10-25T18:54:31.402Z,15.61
2017-10-25T18:57:00.412Z,15.57
2017-10-25T18:59:28.733Z,15.49
2017-10-25T19:01:58.110Z,15.35
2017-10-25T19:04:26.465Z,15.44
2017-10-25T19:06:55.586Z,15.22
2017-10-25T19:09:24.960Z,15.17
2017-10-25T19:11:54.073Z,15.14
2017-10-25T19:14:22.405Z,15.27
2017-10-25T19:16:52.267Z,15.27
2017-10-25T19:19:22.155Z,15.19
2017-10-25T19:21:51.104Z,14.98
2017-10-25T19:24:20.590Z,14.84
2017-10-25T19:26:48.935Z,14.78
2017-10-25T19:29:17.296Z,14.72
2017-10-25T19:31:46.452Z,14.83
2017-10-25T19:34:15.926Z,14.66
2017-10-25T19:36:44.361Z,14.72
2017-10-25T19:39:12.776Z,14.71
2017-10-25T19:41:41.942Z,14.68
2017-10-25T19:44:10.637Z,14.71
2017-10-25T19:46:40.214Z,14.65
2017-10-25T19:49:08.591Z,14.74
2017-10-25T19:51:36.970Z,14.90
2017-10-25T19:54:06.102Z,14.68
2017-10-25T19:56:34.467Z,14.70
2017-10-25T19:59:03.763Z,14.67
2017-10-25T20:01:33.367Z,14.87
2017-10-25T20:04:01.729Z,14.84
2017-10-25T20:06:30.087Z,14.88
2017-10-25T20:08:58.896Z,14.86
2017-10-25T20:11:28.388Z,14.79
2017-10-25T20:13:56.743Z,14.74
2017-10-25T20:16:25.526Z,14.71
2017-10-25T20:18:54.927Z,14.91
2017-10-25T20:21:23.523Z,14.84
2017-10-25T20:23:52.639Z,14.90
2017-10-25T20:26:21.112Z,14.88
2017-10-25T20:28:49.673Z,14.78
2017-10-25T20:31:18.314Z,14.68
2017-10-25T20:33:46.688Z,14.41
2017-10-25T20:36:15.804Z,14.45
2017-10-25T20:38:44.176Z,14.49
2017-10-25T20:41:12.524Z,14.50
2017-10-25T20:43:40.876Z,14.39
2017-10-25T20:46:11.102Z,14.41
2017-10-25T20:48:39.537Z,14.47
2017-10-25T20:51:07.875Z,14.30
2017-10-25T20:53:36.303Z,14.37
2017-10-25T20:56:04.716Z,14.40
2017-10-25T20:58:34.293Z,14.37
2017-10-25T21:01:02.672Z,14.33
2017-10-25T21:03:31.502Z,14.50
2017-10-25T21:06:00.347Z,14.38
2017-10-25T21:08:28.741Z,14.45
2017-10-25T21:10:57.114Z,14.52
2017-10-25T21:13:26.010Z,14.39
2017-10-25T21:15:55.580Z,14.25
2017-10-25T21:18:24.293Z,14.15
2017-10-25T21:20:52.644Z,14.05
2017-10-25T21:23:21.054Z,14.07
2017-10-25T21:25:49.438Z,14.20
2017-10-25T21:28:19.885Z,14.11
2017-10-25T21:30:49.260Z,14.28
2017-10-25T21:33:18.547Z,14.31
2017-10-25T21:35:47.149Z,14.15
2017-10-25T21:38:15.632Z,14.21
2017-10-25T21:40:44.022Z,14.27
2017-10-25T21:43:13.179Z,14.04
2017-10-25T21:45:41.574Z,14.08
2017-10-25T21:48:09.960Z,13.99
2017-10-25T21:50:40.237Z,14.04
2017-10-25T21:53:08.605Z,14.09
2017-10-25T21:55:37.766Z,14.14
2017-10-25T21:58:06.172Z,13.80
2017-10-25T22:00:35.474Z,13.77
2017-10-25T22:03:05.065Z,13.89
2017-10-25T22:05:33.445Z,13.79
2017-10-25T22:08:02.350Z,13.79
2017-10-25T22:10:31.221Z,13.88
2017-10-25T22:13:01.029Z,13.98
2017-10-25T22:15:29.412Z,13.86
2017-10-25T22:17:59.316Z,13.81
2017-10-25T22:20:28.619Z,13.83
2017-10-25T22:22:57.840Z,13.94
2017-10-25T22:25:26.214Z,13.89
2017-10-25T22:27:55.334Z,14.00
2017-10-25T22:30:24.741Z,14.17
2017-10-25T22:32:53.162Z,14.04
2017-10-25T22:35:22.979Z,14.07
2017-10-25T22:37:52.022Z,14.13
2017-10-25T22:40:20.800Z,13.85
2017-10-25T22:42:49.451Z,13.93
2017-10-25T22:45:17.962Z,13.86
2017-10-25T22:47:47.516Z,13.92
2017-10-25T22:50:16.460Z,13.80
2017-10-25T22:52:44.949Z,13.79
2017-10-25T22:55:13.319Z,13.71
2017-10-25T22:57:41.792Z,13.75
2017-10-25T23:00:10.509Z,13.78
2017-10-25T23:02:41.023Z,13.92
2017-10-25T23:05:10.223Z,13.90
2017-10-25T23:07:38.775Z,13.77
2017-10-25T23:10:07.213Z,13.88
2017-10-25T23:12:36.377Z,13.89
2017-10-25T23:15:06.174Z,13.81
2017-10-25T23:17:34.537Z,13.70
2017-10-25T23:20:02.869Z,13.71
2017-10-25T23:22:32.005Z,13.80
2017-10-25T23:25:00.371Z,13.94
2017-10-25T23:27:29.534Z,13.96
2017-10-25T23:29:58.013Z,13.83
2017-10-25T23:32:26.365Z,13.63
2017-10-25T23:34:55.319Z,13.66
2017-10-25T23:37:23.705Z,13.56
2017-10-25T23:39:52.052Z,13.54
2017-10-25T23:42:20.465Z,13.63
2017-10-25T23:44:50.275Z,13.75
2017-10-25T23:47:18.651Z,13.70
2017-10-25T23:49:46.996Z,13.63
2017-10-25T23:52:15.703Z,13.68
2017-10-25T23:54:44.059Z,13.78
2017-10-25T23:57:12.413Z,13.77
2017-10-25T23:59:41.025Z,13.70
